Tanja Jacob — A8YR7 — position and weather

sailwx.info

Track history (hours):
 
Tides and Currents Weather Stations Pressure Air Temp Water Temp Dewpoint Dewpoint Depression Visibility Wind Speed Wind Dir Waves Ship Positions

Tanja Jacob

Last reported at 2017-Mar-22 04:26 UTC. Time now 2017-Mar-24 08:16 UTC.
Position N 35°57' W 005°44'.

Length 227 m; draft 12.3 m.

Type: Ship. MMSI: 636092217.

Date/timePositionNaut miles runAvg speedWind from/ knotsBaromVisibWave heightAir tempDewpointWater temp
2017-Mar-22 04:26N 35°57' W 005°44'9 9.9
2017-Mar-22 03:33N 35°58' W 005°34'9 8.7
2017-Mar-22 02:33N 36°01' W 005°24'3 3.4
2017-Mar-22 01:33N 36°04' W 005°21'2 1.8
2017-Mar-22 00:33N 36°04' W 005°23'3 2.6
2017-Mar-21 23:33N 36°05' W 005°20'8 7.9
2017-Mar-21 22:33N 36°03' W 005°10'1010.1
2017-Mar-21 21:33N 36°05' W 004°58'18610.0
2017-Mar-21 03:03N 36°35' W 001°10'611.6
2017-Mar-21 02:33N 36°36' W 001°03'1212.0
2017-Mar-21 01:32N 36°38' W 000°48'1111.7
2017-Mar-21 00:33N 36°40' W 000°34'4611.4
2017-Mar-20 20:33N 36°48' E 000°22'1511.3
2017-Mar-20 19:15N 36°51' E 000°40'811.7
2017-Mar-20 18:32N 36°52' E 000°50'1211.7
2017-Mar-20 17:29N 36°54' E 001°05'8211.9
2017-Mar-20 10:33N 37°09' E 002°47'1312.7
2017-Mar-20 09:32N 37°11' E 003°03'1212.3
2017-Mar-20 08:33N 37°13' E 003°18'1111.5
2017-Mar-20 07:33N 37°15' E 003°32'2510.7
2017-Mar-20 05:13N 37°20' E 004°03'710.7
2017-Mar-20 04:33N 37°21' E 004°12'1110.7
2017-Mar-20 03:33N 37°23' E 004°25'1111.0
2017-Mar-20 02:33N 37°23' E 004°39'1111.3
2017-Mar-20 01:33N 37°23' E 004°53'1211.8
2017-Mar-20 00:33N 37°23' E 005°08'1211.8
2017-Mar-19 23:33N 37°23' E 005°23'1211.6
2017-Mar-19 22:33N 37°23' E 005°38'2311.4
2017-Mar-19 20:33N 37°19' E 006°06'1512.1
2017-Mar-19 19:20N 37°15' E 006°24'33 0.9
2017-Mar-18 06:33N 36°57' E 006°59'9 0.9
2017-Mar-17 20:18N 37°05' E 006°55'1 1.1
2017-Mar-17 19:33N 37°05' E 006°56'6 4.7
2017-Mar-17 18:24N 37°09' E 006°51'8 9.9
2017-Mar-17 17:33N 37°12' E 006°42'0 0.4
2017-Mar-17 16:33N 37°12' E 006°41'1 0.9
2017-Mar-17 15:33N 37°12' E 006°42'  
2017-Mar-14 01:30N 36°30' E 013°39'1112.0
2017-Mar-14 00:33N 36°25' E 013°52'1212.2
2017-Mar-13 23:33N 36°21' E 014°06'1212.5
2017-Mar-13 22:33N 36°15' E 014°20'1212.3
2017-Mar-13 21:33N 36°10' E 014°34'1212.2
2017-Mar-13 20:33N 35°58' E 014°36'8 7.2
2017-Mar-13 19:23N 35°50' E 014°36'0 0.1
2017-Mar-13 18:32N 35°50' E 014°36'0 0.0
2017-Mar-13 17:28N 35°50' E 014°36'0 0.0
2017-Mar-13 16:31N 35°50' E 014°36'0 0.0
2017-Mar-13 15:31N 35°50' E 014°36'0 0.0
2017-Mar-13 14:33N 35°50' E 014°36'0 0.0
2017-Mar-13 13:27N 35°50' E 014°36'0 0.0
2017-Mar-13 12:32N 35°50' E 014°36'0 0.0
2017-Mar-13 11:29N 35°50' E 014°36'0 0.1
2017-Mar-13 10:25N 35°50' E 014°36'0 0.0
2017-Mar-13 09:31N 35°50' E 014°36'0 0.1
2017-Mar-13 08:31N 35°50' E 014°36'0 0.1
2017-Mar-13 07:30N 35°50' E 014°36'0 0.0
2017-Mar-13 06:33N 35°50' E 014°36'0 0.0
2017-Mar-13 05:32N 35°50' E 014°36'0 0.0
2017-Mar-13 04:32N 35°50' E 014°36'0 0.0
2017-Mar-13 03:31N 35°50' E 014°36'0 0.0
2017-Mar-13 02:31N 35°50' E 014°36'0 0.0
2017-Mar-13 01:31N 35°50' E 014°36'0 0.1
2017-Mar-13 00:33N 35°49' E 014°36'0 0.1
2017-Mar-12 23:33N 35°49' E 014°36'0 0.0
2017-Mar-12 21:29N 35°49' E 014°36'0 0.0
2017-Mar-12 18:31N 35°49' E 014°36'0 0.0
2017-Mar-12 17:21N 35°49' E 014°36'0 0.0
2017-Mar-12 16:33N 35°49' E 014°36'0 0.0
2017-Mar-12 15:26N 35°49' E 014°36'  
Track history (hours):
 
Tides and Currents Weather Stations Pressure Air Temp Water Temp Dewpoint Dewpoint Depression Visibility Wind Speed Wind Dir Waves Ship Positions

Tanja Jacob

Last reported at 2017-Mar-22 04:26 UTC. Time now 2017-Mar-24 08:16 UTC.
Position N 35°57' W 005°44'.

Length 227 m; draft 12.3 m.

Type: Ship. MMSI: 636092217.

Date/timePositionNaut miles runAvg speedWind from/ knotsBaromVisibWave heightAir tempDewpointWater temp
2017-Mar-22 04:26N 35°57' W 005°44'9 9.9
2017-Mar-22 03:33N 35°58' W 005°34'9 8.7
2017-Mar-22 02:33N 36°01' W 005°24'3 3.4
2017-Mar-22 01:33N 36°04' W 005°21'2 1.8
2017-Mar-22 00:33N 36°04' W 005°23'3 2.6
2017-Mar-21 23:33N 36°05' W 005°20'8 7.9
2017-Mar-21 22:33N 36°03' W 005°10'1010.1
2017-Mar-21 21:33N 36°05' W 004°58'18610.0
2017-Mar-21 03:03N 36°35' W 001°10'611.6
2017-Mar-21 02:33N 36°36' W 001°03'1212.0
2017-Mar-21 01:32N 36°38' W 000°48'1111.7
2017-Mar-21 00:33N 36°40' W 000°34'4611.4
2017-Mar-20 20:33N 36°48' E 000°22'1511.3
2017-Mar-20 19:15N 36°51' E 000°40'811.7
2017-Mar-20 18:32N 36°52' E 000°50'1211.7
2017-Mar-20 17:29N 36°54' E 001°05'8211.9
2017-Mar-20 10:33N 37°09' E 002°47'1312.7
2017-Mar-20 09:32N 37°11' E 003°03'1212.3
2017-Mar-20 08:33N 37°13' E 003°18'1111.5
2017-Mar-20 07:33N 37°15' E 003°32'2510.7
2017-Mar-20 05:13N 37°20' E 004°03'710.7
2017-Mar-20 04:33N 37°21' E 004°12'1110.7
2017-Mar-20 03:33N 37°23' E 004°25'1111.0
2017-Mar-20 02:33N 37°23' E 004°39'1111.3
2017-Mar-20 01:33N 37°23' E 004°53'1211.8
2017-Mar-20 00:33N 37°23' E 005°08'1211.8
2017-Mar-19 23:33N 37°23' E 005°23'1211.6
2017-Mar-19 22:33N 37°23' E 005°38'2311.4
2017-Mar-19 20:33N 37°19' E 006°06'1512.1
2017-Mar-19 19:20N 37°15' E 006°24'33 0.9
2017-Mar-18 06:33N 36°57' E 006°59'9 0.9
2017-Mar-17 20:18N 37°05' E 006°55'1 1.1
2017-Mar-17 19:33N 37°05' E 006°56'6 4.7
2017-Mar-17 18:24N 37°09' E 006°51'8 9.9
2017-Mar-17 17:33N 37°12' E 006°42'0 0.4
2017-Mar-17 16:33N 37°12' E 006°41'1 0.9
2017-Mar-17 15:33N 37°12' E 006°42'  
2017-Mar-14 01:30N 36°30' E 013°39'1112.0
2017-Mar-14 00:33N 36°25' E 013°52'1212.2
2017-Mar-13 23:33N 36°21' E 014°06'1212.5
2017-Mar-13 22:33N 36°15' E 014°20'1212.3
2017-Mar-13 21:33N 36°10' E 014°34'1212.2
2017-Mar-13 20:33N 35°58' E 014°36'8 7.2
2017-Mar-13 19:23N 35°50' E 014°36'0 0.1
2017-Mar-13 18:32N 35°50' E 014°36'0 0.0
2017-Mar-13 17:28N 35°50' E 014°36'0 0.0
2017-Mar-13 16:31N 35°50' E 014°36'0 0.0
2017-Mar-13 15:31N 35°50' E 014°36'0 0.0
2017-Mar-13 14:33N 35°50' E 014°36'0 0.0
2017-Mar-13 13:27N 35°50' E 014°36'0 0.0
2017-Mar-13 12:32N 35°50' E 014°36'0 0.0
2017-Mar-13 11:29N 35°50' E 014°36'0 0.1
2017-Mar-13 10:25N 35°50' E 014°36'0 0.0
2017-Mar-13 09:31N 35°50' E 014°36'0 0.1
2017-Mar-13 08:31N 35°50' E 014°36'0 0.1
2017-Mar-13 07:30N 35°50' E 014°36'0 0.0
2017-Mar-13 06:33N 35°50' E 014°36'0 0.0
2017-Mar-13 05:32N 35°50' E 014°36'0 0.0
2017-Mar-13 04:32N 35°50' E 014°36'0 0.0
2017-Mar-13 03:31N 35°50' E 014°36'0 0.0
2017-Mar-13 02:31N 35°50' E 014°36'0 0.0
2017-Mar-13 01:31N 35°50' E 014°36'0 0.1
2017-Mar-13 00:33N 35°49' E 014°36'0 0.1
2017-Mar-12 23:33N 35°49' E 014°36'0 0.0
2017-Mar-12 21:29N 35°49' E 014°36'0 0.0
2017-Mar-12 18:31N 35°49' E 014°36'0 0.0
2017-Mar-12 17:21N 35°49' E 014°36'0 0.0
2017-Mar-12 16:33N 35°49' E 014°36'0 0.0
2017-Mar-12 15:26N 35°49' E 014°36'  

Dump ship's entire track history